createdAt,value
2019-03-12T00:00:23.051Z,2.80
2019-03-12T00:02:50.050Z,2.80
2019-03-12T00:05:16.954Z,2.70
2019-03-12T00:07:43.933Z,2.60
2019-03-12T00:10:10.946Z,2.50
2019-03-12T00:12:37.846Z,2.50
2019-03-12T00:15:04.865Z,2.50
2019-03-12T00:17:31.665Z,2.60
2019-03-12T00:19:58.565Z,2.50
2019-03-12T00:22:25.373Z,2.60
2019-03-12T00:24:52.273Z,2.50
2019-03-12T00:27:19.196Z,2.50
2019-03-12T00:29:46.099Z,2.50
2019-03-12T00:32:12.879Z,2.50
2019-03-12T00:34:39.660Z,2.50
2019-03-12T00:37:06.456Z,2.50
2019-03-12T00:39:33.456Z,2.40
2019-03-12T00:42:00.469Z,2.40
2019-03-12T00:44:27.366Z,2.40
2019-03-12T00:46:54.274Z,2.40
2019-03-12T00:49:21.181Z,2.30
2019-03-12T00:51:47.986Z,2.30
2019-03-12T00:54:15.689Z,2.30
2019-03-12T00:56:42.692Z,2.30
2019-03-12T00:59:09.703Z,2.20
2019-03-12T01:01:36.526Z,2.20
2019-03-12T01:04:03.543Z,2.10
2019-03-12T01:06:30.642Z,2.00
2019-03-12T01:08:57.457Z,1.90
2019-03-12T01:11:24.352Z,1.80
2019-03-12T01:13:51.255Z,1.80
2019-03-12T01:16:18.178Z,1.80
2019-03-12T01:18:44.980Z,1.80
2019-03-12T01:21:11.766Z,1.80
2019-03-12T01:23:38.766Z,1.70
2019-03-12T01:26:05.568Z,1.60
2019-03-12T01:28:32.375Z,1.50
2019-03-12T01:30:59.158Z,1.50
2019-03-12T01:33:25.946Z,1.50
2019-03-12T01:35:52.709Z,1.40
2019-03-12T01:38:19.697Z,1.30
2019-03-12T01:40:46.689Z,1.30
2019-03-12T01:43:13.478Z,1.20
2019-03-12T01:45:40.272Z,1.10
2019-03-12T01:48:07.170Z,1.00
2019-03-12T01:50:34.174Z,0.90
2019-03-12T01:53:01.061Z,0.80
2019-03-12T01:55:28.056Z,0.70
2019-03-12T01:57:54.934Z,0.60
2019-03-12T02:00:21.942Z,0.50
2019-03-12T02:02:48.924Z,0.50
2019-03-12T02:05:15.830Z,0.40
2019-03-12T02:07:42.738Z,0.50
2019-03-12T02:10:10.150Z,0.50
2019-03-12T02:12:37.044Z,0.70
2019-03-12T02:15:05.595Z,0.80
2019-03-12T02:17:32.482Z,1.00
2019-03-12T02:19:59.467Z,1.10
2019-03-12T02:22:26.244Z,1.20
2019-03-12T02:24:53.272Z,1.20
2019-03-12T02:27:20.409Z,1.20
2019-03-12T02:29:47.177Z,1.20
2019-03-12T02:32:14.064Z,1.20
2019-03-12T02:34:40.823Z,1.20
2019-03-12T02:37:07.700Z,1.20
2019-03-12T02:39:34.480Z,1.30
2019-03-12T02:42:01.360Z,1.30
2019-03-12T02:44:28.134Z,1.20
2019-03-12T02:46:55.125Z,1.20
2019-03-12T02:49:21.912Z,1.20
2019-03-12T02:51:48.896Z,1.10
2019-03-12T02:54:15.690Z,1.10
2019-03-12T02:56:42.468Z,1.10
2019-03-12T02:59:09.253Z,1.00
2019-03-12T03:01:36.054Z,0.90
2019-03-12T03:04:03.175Z,0.80
2019-03-12T03:06:49.691Z,0.80
2019-03-12T03:09:16.591Z,0.70
2019-03-12T03:11:43.367Z,0.60
2019-03-12T03:14:42.034Z,0.60
2019-03-12T03:17:13.098Z,0.40
2019-03-12T03:19:41.528Z,0.30
2019-03-12T03:22:08.496Z,0.30
2019-03-12T03:24:35.285Z,0.20
2019-03-12T03:27:02.280Z,0.10
2019-03-12T03:29:29.249Z,0.10
2019-03-12T03:31:56.126Z,0.10
2019-03-12T03:34:27.854Z,0.10
2019-03-12T03:36:51.706Z,0.00
2019-03-12T03:39:18.471Z,0.00
2019-03-12T03:41:45.359Z,0.00
2019-03-12T03:44:12.326Z,0.00
2019-03-12T03:46:39.114Z,-0.10
2019-03-12T03:49:06.243Z,-0.10
2019-03-12T03:51:33.184Z,-0.20
2019-03-12T03:54:00.037Z,-0.20
2019-03-12T03:56:26.919Z,-0.20
2019-03-12T03:58:53.908Z,-0.30
2019-03-12T04:01:20.772Z,-0.40
2019-03-12T04:03:47.771Z,-0.50
2019-03-12T04:06:14.745Z,-0.60
2019-03-12T04:08:41.630Z,-0.70
2019-03-12T04:11:08.523Z,-0.80
2019-03-12T04:13:35.490Z,-0.80
2019-03-12T04:16:02.360Z,-0.90
2019-03-12T04:18:29.126Z,-1.00
2019-03-12T04:20:55.906Z,-1.00
2019-03-12T04:23:22.680Z,-1.00
2019-03-12T04:25:49.615Z,-1.00
2019-03-12T04:28:16.366Z,-1.10
2019-03-12T04:30:43.254Z,-1.10
2019-03-12T04:33:51.011Z,-1.10
2019-03-12T04:36:17.892Z,-1.30
2019-03-12T04:38:44.665Z,-1.30
2019-03-12T04:41:11.457Z,-1.30
2019-03-12T04:43:38.229Z,-1.40
2019-03-12T04:46:05.121Z,-1.40
2019-03-12T04:48:31.907Z,-1.40
2019-03-12T04:50:58.700Z,-1.40
2019-03-12T04:53:25.473Z,-1.40
2019-03-12T04:55:52.257Z,-1.40
2019-03-12T04:58:19.129Z,-1.30
2019-03-12T05:00:45.922Z,-1.30
2019-03-12T05:03:12.710Z,-1.20
2019-03-12T05:05:39.605Z,-1.20
2019-03-12T05:08:06.368Z,-1.10
2019-03-12T05:10:33.279Z,-1.10
2019-03-12T05:13:00.055Z,-1.10
2019-03-12T05:15:26.830Z,-1.10
2019-03-12T05:17:53.609Z,-1.00
2019-03-12T05:20:20.393Z,-1.10
2019-03-12T05:22:47.278Z,-1.10
2019-03-12T05:25:14.256Z,-1.00
2019-03-12T05:27:41.044Z,-1.00
2019-03-12T05:30:10.951Z,-1.00
2019-03-12T05:32:37.721Z,-0.90
2019-03-12T05:35:04.734Z,-0.80
2019-03-12T05:37:31.607Z,-0.70
2019-03-12T05:39:58.481Z,-0.70
2019-03-12T05:42:25.260Z,-0.70
2019-03-12T05:44:52.301Z,-0.60
2019-03-12T05:47:19.193Z,-0.60
2019-03-12T05:49:46.074Z,-0.60
2019-03-12T05:52:13.053Z,-0.60
2019-03-12T05:54:40.035Z,-0.70
2019-03-12T05:57:06.813Z,-0.60
2019-03-12T05:59:33.680Z,-0.60
2019-03-12T06:02:00.575Z,-0.60
2019-03-12T06:04:27.660Z,-0.60
2019-03-12T06:06:54.428Z,-0.50
2019-03-12T06:09:30.095Z,-0.50
2019-03-12T06:11:49.897Z,-0.40
2019-03-12T06:14:16.782Z,-0.20
2019-03-12T06:16:43.567Z,-0.10
2019-03-12T06:19:10.346Z,0.10
2019-03-12T06:21:37.133Z,0.30
2019-03-12T06:24:04.130Z,0.60
2019-03-12T06:26:30.961Z,0.70
2019-03-12T06:28:57.734Z,0.60
2019-03-12T06:31:46.993Z,0.60
2019-03-12T06:34:17.934Z,0.60
2019-03-12T06:37:01.484Z,0.60
2019-03-12T06:39:43.260Z,0.70
2019-03-12T06:42:14.373Z,0.80
2019-03-12T06:45:06.426Z,0.90
2019-03-12T06:47:53.116Z,0.90
2019-03-12T06:50:39.585Z,1.50
2019-03-12T06:53:32.081Z,2.40
2019-03-12T06:56:20.440Z,3.30
2019-03-12T06:58:57.621Z,3.80
2019-03-12T07:01:44.241Z,4.40
2019-03-12T07:04:17.512Z,4.80
2019-03-12T07:07:06.786Z,5.00
2019-03-12T07:10:07.746Z,5.30
2019-03-12T07:12:47.985Z,5.60
2019-03-12T07:15:21.782Z,6.10
2019-03-12T07:18:06.621Z,5.50
2019-03-12T07:20:57.048Z,4.70
2019-03-12T07:23:43.584Z,4.00
2019-03-12T07:26:32.808Z,3.80
2019-03-12T07:29:17.654Z,4.50
2019-03-12T07:31:52.619Z,5.20
2019-03-12T07:34:36.217Z,5.80
2019-03-12T07:37:14.468Z,6.20
2019-03-12T07:39:53.172Z,6.50
2019-03-12T07:42:39.075Z,6.60
2019-03-12T07:45:26.908Z,6.80
2019-03-12T07:48:13.331Z,6.90
2019-03-12T07:50:58.952Z,7.20
2019-03-12T07:53:33.915Z,7.20
2019-03-12T07:56:07.818Z,7.40
2019-03-12T07:58:54.349Z,7.70
2019-03-12T08:01:30.782Z,7.90
2019-03-12T08:04:17.211Z,8.10
2019-03-12T08:07:00.610Z,8.10
2019-03-12T08:09:34.824Z,8.30
2019-03-12T08:12:34.059Z,8.50
2019-03-12T08:15:22.335Z,8.50
2019-03-12T08:17:55.568Z,8.60
2019-03-12T08:20:47.884Z,8.80
2019-03-12T08:23:26.955Z,8.50
2019-03-12T08:26:22.571Z,8.40
2019-03-12T08:29:14.625Z,8.40
2019-03-12T08:32:01.142Z,8.70
2019-03-12T08:34:38.171Z,8.70
2019-03-12T08:37:16.493Z,9.00
2019-03-12T08:40:06.106Z,9.00
2019-03-12T08:42:54.710Z,9.10
2019-03-12T08:45:26.559Z,9.40
2019-03-12T08:48:04.984Z,9.80
2019-03-12T08:50:54.039Z,10.00
2019-03-12T08:53:31.650Z,9.90
2019-03-12T08:56:16.742Z,10.20
2019-03-12T08:59:06.021Z,10.20
2019-03-12T09:01:44.039Z,10.10
2019-03-12T09:04:29.195Z,10.40
2019-03-12T09:07:05.307Z,10.80
2019-03-12T09:09:50.327Z,11.20
2019-03-12T09:12:23.661Z,10.90
2019-03-12T09:15:08.369Z,10.50
2019-03-12T09:17:43.153Z,10.50
2019-03-12T09:20:28.416Z,10.60
2019-03-12T09:23:04.897Z,11.00
2019-03-12T09:26:03.302Z,10.80
2019-03-12T09:28:52.365Z,10.80
2019-03-12T09:31:36.896Z,11.00
2019-03-12T09:34:32.124Z,11.30
2019-03-12T09:37:13.394Z,11.60
2019-03-12T09:39:58.454Z,11.80
2019-03-12T09:42:36.353Z,12.30
2019-03-12T09:45:23.894Z,12.50
2019-03-12T09:48:08.873Z,12.70
2019-03-12T09:50:41.128Z,13.20
2019-03-12T09:53:15.029Z,14.00
2019-03-12T09:56:10.528Z,14.50
2019-03-12T09:58:46.199Z,14.70
2019-03-12T10:01:32.715Z,14.90
2019-03-12T10:04:04.905Z,15.60
2019-03-12T10:06:43.984Z,15.90
2019-03-12T10:09:23.133Z,15.70
2019-03-12T10:12:03.578Z,15.00
2019-03-12T10:14:48.595Z,14.70
2019-03-12T10:17:33.710Z,14.60
2019-03-12T10:20:15.933Z,14.30
2019-03-12T10:23:02.372Z,14.50
2019-03-12T10:26:00.795Z,14.60
2019-03-12T10:28:47.507Z,14.80
2019-03-12T10:31:46.038Z,14.60
2019-03-12T10:34:29.865Z,14.60
2019-03-12T10:37:12.040Z,15.00
2019-03-12T10:40:02.850Z,14.90
2019-03-12T10:43:06.634Z,15.20
2019-03-12T10:45:38.660Z,15.10
2019-03-12T10:48:06.060Z,14.80
2019-03-12T10:50:33.328Z,15.50
2019-03-12T10:53:00.303Z,16.00
2019-03-12T10:55:27.369Z,16.20
2019-03-12T10:57:54.133Z,16.20
2019-03-12T11:00:21.116Z,16.20
2019-03-12T11:02:47.987Z,16.10
2019-03-12T11:05:15.284Z,16.20
2019-03-12T11:07:42.257Z,16.00
2019-03-12T11:10:09.968Z,15.30
2019-03-12T11:12:36.850Z,15.50
2019-03-12T11:15:04.625Z,16.10
2019-03-12T11:17:31.480Z,16.20
2019-03-12T11:19:58.361Z,16.30
2019-03-12T11:22:25.129Z,16.00
2019-03-12T11:24:51.892Z,15.50
2019-03-12T11:27:18.886Z,15.00
2019-03-12T11:29:45.753Z,15.00
2019-03-12T11:32:12.527Z,14.80
2019-03-12T11:34:39.304Z,14.90
2019-03-12T11:37:06.074Z,14.50
2019-03-12T11:39:33.005Z,14.40
2019-03-12T11:41:59.948Z,14.20
2019-03-12T11:44:26.932Z,14.50
2019-03-12T11:46:53.782Z,15.40
2019-03-12T11:49:20.639Z,15.90
2019-03-12T11:51:47.507Z,16.10
2019-03-12T11:54:14.264Z,15.70
2019-03-12T11:56:41.233Z,15.00
2019-03-12T11:59:08.109Z,14.50
2019-03-12T12:01:35.097Z,14.20
2019-03-12T12:04:02.029Z,14.10
2019-03-12T12:06:28.970Z,13.60
2019-03-12T12:08:55.953Z,13.20
2019-03-12T12:11:23.005Z,13.10
2019-03-12T12:13:49.785Z,13.00
2019-03-12T12:16:16.654Z,13.40
2019-03-12T12:18:43.617Z,13.70
2019-03-12T12:21:10.605Z,14.30
2019-03-12T12:23:37.398Z,15.10
2019-03-12T12:26:04.282Z,15.80
2019-03-12T12:28:31.156Z,15.40
2019-03-12T12:30:58.053Z,15.50
2019-03-12T12:33:24.941Z,15.60
2019-03-12T12:35:51.734Z,14.60
2019-03-12T12:38:18.745Z,13.40
2019-03-12T12:40:45.733Z,13.40
2019-03-12T12:43:12.617Z,13.10
2019-03-12T12:45:39.491Z,13.10
2019-03-12T12:48:06.586Z,13.50
2019-03-12T12:50:33.624Z,14.10
2019-03-12T12:53:00.482Z,14.40
2019-03-12T12:55:27.315Z,15.00
2019-03-12T12:57:54.259Z,14.80
2019-03-12T13:00:21.351Z,14.90
2019-03-12T13:02:48.314Z,15.00
2019-03-12T13:05:15.274Z,15.00
2019-03-12T13:07:42.253Z,14.50
2019-03-12T13:10:12.253Z,13.70
2019-03-12T13:12:39.133Z,12.90
2019-03-12T13:15:06.550Z,12.10
2019-03-12T13:17:33.422Z,11.50
2019-03-12T13:20:00.392Z,10.90
2019-03-12T13:22:27.283Z,10.80
2019-03-12T13:24:54.149Z,10.80
2019-03-12T13:27:20.941Z,10.90
2019-03-12T13:29:47.706Z,10.70
2019-03-12T13:32:14.503Z,10.60
2019-03-12T13:34:41.369Z,10.50
2019-03-12T13:37:08.132Z,10.50
2019-03-12T13:39:34.915Z,10.30
2019-03-12T13:42:01.706Z,10.50
2019-03-12T13:44:28.582Z,10.80
2019-03-12T13:46:55.352Z,11.00
2019-03-12T13:49:22.331Z,11.50
2019-03-12T13:51:49.393Z,11.80
2019-03-12T13:54:16.264Z,12.00
2019-03-12T13:56:43.061Z,12.20
2019-03-12T13:59:09.924Z,12.20
2019-03-12T14:01:36.890Z,12.20
2019-03-12T14:04:10.653Z,12.40
2019-03-12T14:06:32.523Z,12.40
2019-03-12T14:08:59.383Z,12.50
2019-03-12T14:11:26.245Z,12.40
2019-03-12T14:13:53.223Z,12.10
2019-03-12T14:16:20.085Z,11.80
2019-03-12T14:18:46.945Z,11.90
2019-03-12T14:21:14.662Z,11.70
2019-03-12T14:23:54.443Z,11.90
2019-03-12T14:26:21.401Z,11.80
2019-03-12T14:28:48.286Z,11.90
2019-03-12T14:31:15.166Z,12.30
2019-03-12T14:33:41.937Z,12.90
2019-03-12T14:36:08.914Z,13.10
2019-03-12T14:38:35.788Z,13.10
2019-03-12T14:41:03.165Z,13.10
2019-03-12T14:43:30.057Z,13.00
2019-03-12T14:45:57.029Z,13.10
2019-03-12T14:48:44.437Z,12.70
2019-03-12T14:52:00.108Z,12.50
2019-03-12T14:54:27.139Z,12.50
2019-03-12T14:56:54.103Z,13.10
2019-03-12T14:59:20.975Z,13.00
2019-03-12T15:01:47.841Z,12.70
2019-03-12T15:04:15.243Z,12.30
2019-03-12T15:06:42.291Z,12.40
2019-03-12T15:09:12.046Z,12.40
2019-03-12T15:11:39.008Z,12.10
2019-03-12T15:14:05.873Z,12.00
2019-03-12T15:16:32.757Z,11.90
2019-03-12T15:18:59.751Z,11.70
2019-03-12T15:21:26.517Z,11.20
2019-03-12T15:23:53.377Z,10.70
2019-03-12T15:26:20.249Z,10.40
2019-03-12T15:28:47.022Z,10.10
2019-03-12T15:31:13.790Z,9.80
2019-03-12T15:33:40.554Z,9.70
2019-03-12T15:36:07.417Z,9.70
2019-03-12T15:38:34.202Z,9.80
2019-03-12T15:41:01.082Z,9.80
2019-03-12T15:43:27.950Z,9.90
2019-03-12T15:45:54.829Z,9.90
2019-03-12T15:48:21.682Z,10.00
2019-03-12T15:50:48.785Z,10.20
2019-03-12T15:53:15.744Z,10.30
2019-03-12T15:55:42.606Z,10.10
2019-03-12T15:58:09.389Z,10.00
2019-03-12T16:00:36.352Z,9.90
2019-03-12T16:03:03.319Z,9.80
2019-03-12T16:05:30.185Z,9.70
2019-03-12T16:07:56.953Z,9.60
2019-03-12T16:10:23.952Z,9.60
2019-03-12T16:12:50.725Z,9.50
2019-03-12T16:15:17.790Z,9.40
2019-03-12T16:17:44.671Z,9.30
2019-03-12T16:20:11.681Z,9.20
2019-03-12T16:22:38.563Z,9.10
2019-03-12T16:25:05.848Z,9.00
2019-03-12T16:27:32.759Z,8.90
2019-03-12T16:29:59.665Z,8.90
2019-03-12T16:32:26.588Z,8.90
2019-03-12T16:34:53.521Z,8.90
2019-03-12T16:37:23.855Z,8.80
2019-03-12T16:39:50.645Z,8.80
2019-03-12T16:42:17.420Z,8.70
2019-03-12T16:44:44.215Z,8.70
2019-03-12T16:47:11.201Z,8.70
2019-03-12T16:49:37.979Z,8.70
2019-03-12T16:52:04.953Z,8.60
2019-03-12T16:54:31.728Z,8.60
2019-03-12T16:56:58.602Z,8.50
2019-03-12T16:59:25.388Z,8.40
2019-03-12T17:01:52.162Z,8.30
2019-03-12T17:04:18.954Z,8.20
2019-03-12T17:06:45.733Z,8.20
2019-03-12T17:09:12.604Z,8.10
2019-03-12T17:11:39.494Z,8.00
2019-03-12T17:14:06.374Z,7.90
2019-03-12T17:16:33.158Z,7.90
2019-03-12T17:18:59.931Z,7.80
2019-03-12T17:21:26.861Z,7.80
2019-03-12T17:23:53.763Z,7.70
2019-03-12T17:26:20.610Z,7.60
2019-03-12T17:28:47.508Z,7.50
2019-03-12T17:31:14.515Z,7.50
2019-03-12T17:33:41.288Z,7.50
2019-03-12T17:36:08.162Z,7.40
2019-03-12T17:38:46.052Z,7.40
2019-03-12T17:41:03.826Z,7.50
2019-03-12T17:43:30.593Z,7.50
2019-03-12T17:45:57.477Z,7.40
2019-03-12T17:48:24.252Z,7.40
2019-03-12T17:50:51.138Z,7.40
2019-03-12T17:53:18.109Z,7.40
2019-03-12T17:55:45.014Z,7.30
2019-03-12T17:58:12.040Z,7.30
2019-03-12T18:00:41.729Z,7.30
2019-03-12T18:03:08.510Z,7.30
2019-03-12T18:05:35.287Z,7.30
2019-03-12T18:08:02.159Z,7.20
2019-03-12T18:10:29.041Z,7.20
2019-03-12T18:12:56.053Z,7.20
2019-03-12T18:15:23.113Z,7.20
2019-03-12T18:17:50.012Z,7.20
2019-03-12T18:20:16.912Z,7.20
2019-03-12T18:22:43.909Z,7.20
2019-03-12T18:25:13.705Z,7.20
2019-03-12T18:27:40.611Z,7.20
2019-03-12T18:30:10.393Z,7.20
2019-03-12T18:32:37.293Z,7.20
2019-03-12T18:35:04.574Z,7.20
2019-03-12T18:37:31.391Z,7.30
2019-03-12T18:39:58.270Z,7.20
2019-03-12T18:42:25.190Z,7.20
2019-03-12T18:44:52.072Z,7.20
2019-03-12T18:47:19.341Z,7.20
2019-03-12T18:49:46.549Z,7.10
2019-03-12T18:52:13.440Z,7.10
2019-03-12T18:54:40.239Z,7.10
2019-03-12T18:57:07.229Z,7.00
2019-03-12T18:59:34.049Z,7.00
2019-03-12T19:02:01.078Z,7.00
2019-03-12T19:04:27.877Z,7.00
2019-03-12T19:06:54.802Z,7.00
2019-03-12T19:09:21.721Z,6.90
2019-03-12T19:11:48.913Z,6.90
2019-03-12T19:14:15.897Z,6.90
2019-03-12T19:16:42.880Z,6.90
2019-03-12T19:19:09.877Z,6.90
2019-03-12T19:21:36.789Z,6.90
2019-03-12T19:24:03.830Z,6.90
2019-03-12T19:26:30.902Z,6.90
2019-03-12T19:28:57.926Z,6.90
2019-03-12T19:31:47.570Z,6.90
2019-03-12T19:34:23.803Z,6.90
2019-03-12T19:36:50.732Z,6.80
2019-03-12T19:39:18.302Z,6.80
2019-03-12T19:41:45.373Z,6.80
2019-03-12T19:44:12.277Z,6.80
2019-03-12T19:46:39.073Z,6.80
2019-03-12T19:49:06.137Z,6.80
2019-03-12T19:51:33.038Z,6.80
2019-03-12T19:54:00.066Z,6.80
2019-03-12T19:56:26.982Z,6.70
2019-03-12T19:58:54.124Z,6.70
2019-03-12T20:01:22.051Z,6.70
2019-03-12T20:03:49.076Z,6.70
2019-03-12T20:06:15.967Z,6.70
2019-03-12T20:08:42.903Z,6.70
2019-03-12T20:11:50.817Z,6.60
2019-03-12T20:15:14.896Z,6.70
2019-03-12T20:18:19.002Z,6.60
2019-03-12T20:21:30.121Z,6.60
2019-03-12T20:24:35.335Z,6.60
2019-03-12T20:27:39.997Z,6.50
2019-03-12T20:30:43.289Z,6.50
2019-03-12T20:33:40.781Z,6.50
2019-03-12T20:36:57.730Z,6.50
2019-03-12T20:40:12.828Z,6.50
2019-03-12T20:43:14.364Z,6.50
2019-03-12T20:46:38.163Z,6.40
2019-03-12T20:49:41.765Z,6.40
2019-03-12T20:52:50.817Z,6.40
2019-03-12T20:56:11.926Z,6.40
2019-03-12T20:59:36.068Z,6.50
2019-03-12T21:02:45.092Z,6.50
2019-03-12T21:05:43.518Z,6.50
2019-03-12T21:08:46.176Z,6.60
2019-03-12T21:11:55.282Z,6.60
2019-03-12T21:15:03.820Z,6.50
2019-03-12T21:18:07.436Z,6.50
2019-03-12T21:21:06.630Z,6.50
2019-03-12T21:24:14.636Z,6.50
2019-03-12T21:27:19.282Z,6.50
2019-03-12T21:29:49.642Z,6.50
2019-03-12T21:32:17.055Z,6.50
2019-03-12T21:34:44.264Z,6.40
2019-03-12T21:37:11.422Z,6.50
2019-03-12T21:39:38.306Z,6.40
2019-03-12T21:42:05.316Z,6.40
2019-03-12T21:44:32.366Z,6.40
2019-03-12T21:46:59.472Z,6.40
2019-03-12T21:49:26.356Z,6.40
2019-03-12T21:51:53.233Z,6.40
2019-03-12T21:54:20.112Z,6.30
2019-03-12T21:56:46.880Z,6.30
2019-03-12T21:59:13.659Z,6.30
2019-03-12T22:01:40.641Z,6.20
2019-03-12T22:04:07.561Z,6.10
2019-03-12T22:06:34.364Z,6.10
2019-03-12T22:09:01.465Z,6.10
2019-03-12T22:11:28.257Z,6.10
2019-03-12T22:13:55.185Z,6.10
2019-03-12T22:16:21.978Z,6.10
2019-03-12T22:18:48.890Z,6.20
2019-03-12T22:21:18.305Z,6.20
2019-03-12T22:23:47.347Z,6.20
2019-03-12T22:26:14.137Z,6.30
2019-03-12T22:28:41.029Z,6.30
2019-03-12T22:31:07.974Z,6.40
2019-03-12T22:33:34.985Z,6.50
2019-03-12T22:36:01.953Z,6.50
2019-03-12T22:38:28.925Z,6.60
2019-03-12T22:40:55.696Z,6.70
2019-03-12T22:43:22.470Z,6.80
2019-03-12T22:45:49.251Z,6.80
2019-03-12T22:48:16.133Z,6.80
2019-03-12T22:50:42.913Z,6.90
2019-03-12T22:53:09.677Z,6.90
2019-03-12T22:55:36.463Z,7.00
2019-03-12T22:58:03.472Z,7.00
2019-03-12T23:00:36.300Z,7.00
2019-03-12T23:03:03.263Z,7.10
2019-03-12T23:05:30.129Z,7.20
2019-03-12T23:07:57.101Z,7.20
2019-03-12T23:10:24.508Z,7.20
2019-03-12T23:12:51.476Z,7.40
2019-03-12T23:15:18.749Z,7.70
2019-03-12T23:17:45.714Z,8.20
2019-03-12T23:20:12.719Z,8.60
2019-03-12T23:22:39.593Z,8.80
2019-03-12T23:25:06.691Z,9.10
2019-03-12T23:27:33.661Z,9.30
2019-03-12T23:30:00.560Z,9.40
2019-03-12T23:32:27.428Z,9.50
2019-03-12T23:34:54.306Z,9.60
2019-03-12T23:37:21.192Z,9.60
2019-03-12T23:39:48.085Z,9.60
2019-03-12T23:42:15.242Z,9.60
2019-03-12T23:44:42.218Z,9.50
2019-03-12T23:47:09.085Z,9.40
2019-03-12T23:49:35.973Z,9.30
2019-03-12T23:52:02.937Z,9.20
2019-03-12T23:54:29.897Z,9.10
2019-03-12T23:56:56.783Z,8.90
2019-03-12T23:59:23.970Z,8.80
